sensor_id;sensor_type;location;lat;lon;timestamp;pressure;altitude;pressure_sealevel;temperature;humidity
33795;BME280;51430;52.242;21.118;2023-02-03T00:01:35;100670.95;;;1.19;96.72
33795;BME280;51430;52.242;21.118;2023-02-03T00:04:21;100674.83;;;1.21;96.63
33795;BME280;51430;52.242;21.118;2023-02-03T00:07:10;100678.35;;;1.18;96.61
33795;BME280;51430;52.242;21.118;2023-02-03T00:09:57;100673.23;;;1.12;96.58
33795;BME280;51430;52.242;21.118;2023-02-03T00:12:44;100679.17;;;1.03;96.66
33795;BME280;51430;52.242;21.118;2023-02-03T00:15:30;100678.38;;;1.02;96.87
33795;BME280;51430;52.242;21.118;2023-02-03T00:18:17;100673.80;;;0.99;96.70
33795;BME280;51430;52.242;21.118;2023-02-03T00:21:04;100668.28;;;1.00;96.68
33795;BME280;51430;52.242;21.118;2023-02-03T00:23:51;100671.48;;;0.97;96.60
33795;BME280;51430;52.242;21.118;2023-02-03T00:26:41;100677.89;;;0.90;96.61
33795;BME280;51430;52.242;21.118;2023-02-03T00:29:28;100682.02;;;0.89;96.61
33795;BME280;51430;52.242;21.118;2023-02-03T00:32:15;100682.45;;;0.81;96.43
33795;BME280;51430;52.242;21.118;2023-02-03T00:35:03;100681.24;;;0.75;96.45
33795;BME280;51430;52.242;21.118;2023-02-03T00:37:51;100680.40;;;0.69;96.44
33795;BME280;51430;52.242;21.118;2023-02-03T00:40:38;100680.67;;;0.66;96.41
33795;BME280;51430;52.242;21.118;2023-02-03T00:43:25;100679.38;;;0.64;96.46
33795;BME280;51430;52.242;21.118;2023-02-03T00:46:12;100684.09;;;0.61;96.42
33795;BME280;51430;52.242;21.118;2023-02-03T00:48:59;100681.23;;;0.65;96.19
33795;BME280;51430;52.242;21.118;2023-02-03T00:51:46;100680.36;;;0.60;95.86
33795;BME280;51430;52.242;21.118;2023-02-03T00:54:32;100686.05;;;0.59;95.89
33795;BME280;51430;52.242;21.118;2023-02-03T00:57:19;100690.38;;;0.58;95.62
33795;BME280;51430;52.242;21.118;2023-02-03T01:00:06;100695.75;;;0.55;95.47
33795;BME280;51430;52.242;21.118;2023-02-03T01:02:53;100695.77;;;0.60;95.21
33795;BME280;51430;52.242;21.118;2023-02-03T01:05:40;100692.33;;;0.55;95.29
33795;BME280;51430;52.242;21.118;2023-02-03T01:08:26;100696.07;;;0.56;95.25
33795;BME280;51430;52.242;21.118;2023-02-03T01:11:18;100694.73;;;0.55;95.25
33795;BME280;51430;52.242;21.118;2023-02-03T01:14:06;100697.84;;;0.54;95.27
33795;BME280;51430;52.242;21.118;2023-02-03T01:16:53;100701.83;;;0.53;95.19
33795;BME280;51430;52.242;21.118;2023-02-03T01:19:39;100705.83;;;0.57;94.79
33795;BME280;51430;52.242;21.118;2023-02-03T01:22:28;100701.28;;;0.54;94.49
33795;BME280;51430;52.242;21.118;2023-02-03T01:25:15;100706.73;;;0.56;94.15
33795;BME280;51430;52.242;21.118;2023-02-03T01:28:02;100705.94;;;0.53;94.01
33795;BME280;51430;52.242;21.118;2023-02-03T01:30:51;100702.95;;;0.56;93.86
33795;BME280;51430;52.242;21.118;2023-02-03T01:33:38;100699.11;;;0.58;93.44
33795;BME280;51430;52.242;21.118;2023-02-03T01:36:33;100700.14;;;0.58;93.36
33795;BME280;51430;52.242;21.118;2023-02-03T01:39:20;100705.70;;;0.67;93.14
33795;BME280;51430;52.242;21.118;2023-02-03T01:42:13;100704.67;;;0.73;92.88
33795;BME280;51430;52.242;21.118;2023-02-03T01:45:00;100708.55;;;0.81;92.38
33795;BME280;51430;52.242;21.118;2023-02-03T01:47:53;100705.18;;;0.84;92.41
33795;BME280;51430;52.242;21.118;2023-02-03T01:50:40;100700.01;;;0.90;92.18
33795;BME280;51430;52.242;21.118;2023-02-03T01:53:27;100698.86;;;0.99;91.74
33795;BME280;51430;52.242;21.118;2023-02-03T01:56:14;100693.96;;;1.02;90.87
33795;BME280;51430;52.242;21.118;2023-02-03T01:59:01;100687.48;;;1.01;90.23
33795;BME280;51430;52.242;21.118;2023-02-03T02:01:51;100690.45;;;1.05;90.27
33795;BME280;51430;52.242;21.118;2023-02-03T02:04:56;100691.77;;;1.06;89.40
33795;BME280;51430;52.242;21.118;2023-02-03T02:07:46;100690.26;;;1.06;88.78
33795;BME280;51430;52.242;21.118;2023-02-03T02:10:33;100693.95;;;1.03;87.91
33795;BME280;51430;52.242;21.118;2023-02-03T02:13:21;100691.79;;;1.06;87.35
33795;BME280;51430;52.242;21.118;2023-02-03T02:32:33;100672.25;;;1.00;84.91
33795;BME280;51430;52.242;21.118;2023-02-03T02:35:31;100671.19;;;1.01;84.71
33795;BME280;51430;52.242;21.118;2023-02-03T02:38:43;100681.77;;;0.92;84.85
33795;BME280;51430;52.242;21.118;2023-02-03T02:41:42;100682.46;;;0.91;84.68
33795;BME280;51430;52.242;21.118;2023-02-03T02:44:38;100673.87;;;0.86;84.22
33795;BME280;51430;52.242;21.118;2023-02-03T02:47:27;100666.55;;;0.79;85.05
33795;BME280;51430;52.242;21.118;2023-02-03T02:50:20;100670.02;;;0.83;84.90
33795;BME280;51430;52.242;21.118;2023-02-03T02:53:10;100663.89;;;0.87;85.09
33795;BME280;51430;52.242;21.118;2023-02-03T02:55:58;100671.17;;;0.90;85.28
33795;BME280;51430;52.242;21.118;2023-02-03T02:58:48;100671.05;;;0.94;85.33
33795;BME280;51430;52.242;21.118;2023-02-03T03:01:36;100662.64;;;0.94;85.65
33795;BME280;51430;52.242;21.118;2023-02-03T03:04:26;100662.14;;;0.99;85.11
33795;BME280;51430;52.242;21.118;2023-02-03T03:07:17;100667.39;;;0.96;85.34
33795;BME280;51430;52.242;21.118;2023-02-03T03:10:09;100667.06;;;0.90;84.90
33795;BME280;51430;52.242;21.118;2023-02-03T03:13:01;100669.54;;;0.82;84.93
33795;BME280;51430;52.242;21.118;2023-02-03T03:15:51;100669.08;;;0.75;85.10
33795;BME280;51430;52.242;21.118;2023-02-03T03:18:43;100669.42;;;0.75;85.44
33795;BME280;51430;52.242;21.118;2023-02-03T03:21:35;100670.85;;;0.68;85.81
33795;BME280;51430;52.242;21.118;2023-02-03T03:24:28;100669.87;;;0.66;85.37
33795;BME280;51430;52.242;21.118;2023-02-03T03:27:21;100665.30;;;0.59;85.43
33795;BME280;51430;52.242;21.118;2023-02-03T03:30:25;100673.01;;;0.48;86.14
33795;BME280;51430;52.242;21.118;2023-02-03T03:33:13;100670.36;;;0.45;86.49
33795;BME280;51430;52.242;21.118;2023-02-03T03:39:22;100666.50;;;0.36;87.31
33795;BME280;51430;52.242;21.118;2023-02-03T03:42:16;100664.67;;;0.28;87.74
33795;BME280;51430;52.242;21.118;2023-02-03T03:45:34;100659.67;;;0.23;88.20
33795;BME280;51430;52.242;21.118;2023-02-03T03:51:12;100654.33;;;0.12;88.46
33795;BME280;51430;52.242;21.118;2023-02-03T03:54:04;100649.76;;;0.10;88.77
33795;BME280;51430;52.242;21.118;2023-02-03T03:57:04;100648.89;;;0.05;88.93
33795;BME280;51430;52.242;21.118;2023-02-03T03:59:52;100657.61;;;-0.01;89.19
33795;BME280;51430;52.242;21.118;2023-02-03T04:02:41;100658.48;;;-0.02;89.27
33795;BME280;51430;52.242;21.118;2023-02-03T04:05:32;100657.67;;;-0.03;89.60
33795;BME280;51430;52.242;21.118;2023-02-03T04:08:20;100659.38;;;-0.03;89.76
33795;BME280;51430;52.242;21.118;2023-02-03T04:11:07;100659.16;;;-0.02;89.66
33795;BME280;51430;52.242;21.118;2023-02-03T04:13:54;100662.50;;;-0.04;89.36
33795;BME280;51430;52.242;21.118;2023-02-03T04:16:40;100656.14;;;-0.10;89.46
33795;BME280;51430;52.242;21.118;2023-02-03T04:19:27;100655.18;;;-0.12;89.60
33795;BME280;51430;52.242;21.118;2023-02-03T04:22:14;100654.96;;;-0.11;89.42
33795;BME280;51430;52.242;21.118;2023-02-03T04:25:00;100654.50;;;-0.18;89.30
33795;BME280;51430;52.242;21.118;2023-02-03T04:27:47;100655.86;;;-0.25;89.83
33795;BME280;51430;52.242;21.118;2023-02-03T04:30:35;100652.63;;;-0.25;89.87
33795;BME280;51430;52.242;21.118;2023-02-03T04:33:21;100650.39;;;-0.31;90.11
33795;BME280;51430;52.242;21.118;2023-02-03T04:36:08;100654.45;;;-0.29;90.18
33795;BME280;51430;52.242;21.118;2023-02-03T04:38:54;100652.73;;;-0.30;90.05
33795;BME280;51430;52.242;21.118;2023-02-03T04:41:42;100657.63;;;-0.33;90.00
33795;BME280;51430;52.242;21.118;2023-02-03T04:44:29;100661.95;;;-0.34;90.08
33795;BME280;51430;52.242;21.118;2023-02-03T04:47:17;100655.52;;;-0.31;89.87
33795;BME280;51430;52.242;21.118;2023-02-03T04:50:04;100657.39;;;-0.37;90.00
33795;BME280;51430;52.242;21.118;2023-02-03T04:52:51;100657.36;;;-0.36;90.06
33795;BME280;51430;52.242;21.118;2023-02-03T04:55:38;100652.00;;;-0.34;89.91
33795;BME280;51430;52.242;21.118;2023-02-03T04:58:25;100649.91;;;-0.32;89.58
33795;BME280;51430;52.242;21.118;2023-02-03T05:01:12;100644.70;;;-0.36;89.53
33795;BME280;51430;52.242;21.118;2023-02-03T05:03:58;100647.81;;;-0.37;89.62
33795;BME280;51430;52.242;21.118;2023-02-03T05:06:45;100639.09;;;-0.38;89.56
33795;BME280;51430;52.242;21.118;2023-02-03T05:09:32;100629.89;;;-0.40;89.65
33795;BME280;51430;52.242;21.118;2023-02-03T05:12:19;100630.34;;;-0.37;89.68
33795;BME280;51430;52.242;21.118;2023-02-03T05:15:07;100630.76;;;-0.34;89.69
33795;BME280;51430;52.242;21.118;2023-02-03T05:17:54;100628.99;;;-0.32;89.73
33795;BME280;51430;52.242;21.118;2023-02-03T05:20:41;100629.00;;;-0.32;89.76
33795;BME280;51430;52.242;21.118;2023-02-03T05:23:28;100624.48;;;-0.29;89.75
33795;BME280;51430;52.242;21.118;2023-02-03T05:26:15;100627.06;;;-0.36;89.89
33795;BME280;51430;52.242;21.118;2023-02-03T05:29:02;100628.48;;;-0.32;90.00
33795;BME280;51430;52.242;21.118;2023-02-03T05:31:49;100625.31;;;-0.35;90.10
33795;BME280;51430;52.242;21.118;2023-02-03T05:34:35;100622.00;;;-0.33;90.24
33795;BME280;51430;52.242;21.118;2023-02-03T05:37:22;100630.15;;;-0.30;90.26
33795;BME280;51430;52.242;21.118;2023-02-03T05:40:09;100627.71;;;-0.35;90.52
33795;BME280;51430;52.242;21.118;2023-02-03T05:43:15;100619.10;;;-0.39;90.93
33795;BME280;51430;52.242;21.118;2023-02-03T05:46:03;100617.55;;;-0.39;91.38
33795;BME280;51430;52.242;21.118;2023-02-03T05:48:50;100618.18;;;-0.37;91.65
33795;BME280;51430;52.242;21.118;2023-02-03T05:51:37;100616.77;;;-0.36;91.97
33795;BME280;51430;52.242;21.118;2023-02-03T05:54:24;100618.34;;;-0.37;92.00
33795;BME280;51430;52.242;21.118;2023-02-03T05:57:11;100621.62;;;-0.31;92.18
33795;BME280;51430;52.242;21.118;2023-02-03T05:59:58;100618.23;;;-0.33;92.29
33795;BME280;51430;52.242;21.118;2023-02-03T06:02:56;100614.63;;;-0.32;92.75
33795;BME280;51430;52.242;21.118;2023-02-03T06:05:43;100613.55;;;-0.30;92.71
33795;BME280;51430;52.242;21.118;2023-02-03T06:08:30;100605.76;;;-0.27;92.66
33795;BME280;51430;52.242;21.118;2023-02-03T06:11:16;100606.59;;;-0.15;92.50
33795;BME280;51430;52.242;21.118;2023-02-03T06:14:03;100603.75;;;-0.17;92.49
33795;BME280;51430;52.242;21.118;2023-02-03T06:16:50;100602.05;;;-0.17;92.46
33795;BME280;51430;52.242;21.118;2023-02-03T06:19:36;100598.16;;;-0.19;92.75
33795;BME280;51430;52.242;21.118;2023-02-03T06:22:23;100593.81;;;-0.17;92.64
33795;BME280;51430;52.242;21.118;2023-02-03T06:25:10;100594.48;;;-0.16;92.59
33795;BME280;51430;52.242;21.118;2023-02-03T06:27:59;100592.80;;;-0.18;93.01
33795;BME280;51430;52.242;21.118;2023-02-03T06:30:48;100590.13;;;-0.20;93.39
33795;BME280;51430;52.242;21.118;2023-02-03T06:33:35;100584.30;;;-0.20;93.52
33795;BME280;51430;52.242;21.118;2023-02-03T06:36:22;100585.43;;;-0.18;93.72
33795;BME280;51430;52.242;21.118;2023-02-03T06:39:09;100581.36;;;-0.13;93.51
33795;BME280;51430;52.242;21.118;2023-02-03T06:41:55;100574.52;;;-0.13;93.57
33795;BME280;51430;52.242;21.118;2023-02-03T06:44:42;100568.87;;;-0.13;93.62
33795;BME280;51430;52.242;21.118;2023-02-03T06:47:29;100565.44;;;-0.07;93.70
33795;BME280;51430;52.242;21.118;2023-02-03T06:50:16;100561.29;;;-0.06;93.37
33795;BME280;51430;52.242;21.118;2023-02-03T06:53:02;100554.98;;;-0.01;93.35
33795;BME280;51430;52.242;21.118;2023-02-03T06:55:49;100550.02;;;0.05;93.35
33795;BME280;51430;52.242;21.118;2023-02-03T06:58:35;100540.91;;;0.17;92.86
33795;BME280;51430;52.242;21.118;2023-02-03T07:01:22;100540.84;;;0.19;92.57
33795;BME280;51430;52.242;21.118;2023-02-03T07:04:09;100546.48;;;0.19;92.67
33795;BME280;51430;52.242;21.118;2023-02-03T07:06:56;100539.60;;;0.20;92.29
33795;BME280;51430;52.242;21.118;2023-02-03T07:09:42;100530.89;;;0.30;92.23
33795;BME280;51430;52.242;21.118;2023-02-03T07:12:30;100528.96;;;0.48;92.01
33795;BME280;51430;52.242;21.118;2023-02-03T07:15:16;100523.86;;;0.57;91.50
33795;BME280;51430;52.242;21.118;2023-02-03T07:18:04;100514.48;;;0.71;91.07
33795;BME280;51430;52.242;21.118;2023-02-03T07:20:52;100510.72;;;0.96;90.63
33795;BME280;51430;52.242;21.118;2023-02-03T07:23:38;100508.59;;;1.31;89.62
33795;BME280;51430;52.242;21.118;2023-02-03T07:26:25;100503.71;;;1.52;87.97
33795;BME280;51430;52.242;21.118;2023-02-03T07:29:12;100503.64;;;1.45;87.08
33795;BME280;51430;52.242;21.118;2023-02-03T07:31:59;100502.11;;;1.77;86.36
33795;BME280;51430;52.242;21.118;2023-02-03T07:34:47;100495.98;;;2.11;85.05
33795;BME280;51430;52.242;21.118;2023-02-03T07:37:34;100494.81;;;2.19;84.32
33795;BME280;51430;52.242;21.118;2023-02-03T07:40:21;100492.14;;;2.21;83.88
33795;BME280;51430;52.242;21.118;2023-02-03T07:43:07;100490.66;;;2.62;83.06
33795;BME280;51430;52.242;21.118;2023-02-03T07:45:54;100486.15;;;2.71;81.42
33795;BME280;51430;52.242;21.118;2023-02-03T07:48:41;100482.55;;;3.07;80.97
33795;BME280;51430;52.242;21.118;2023-02-03T07:51:27;100478.61;;;2.98;79.16
33795;BME280;51430;52.242;21.118;2023-02-03T07:54:14;100471.64;;;2.80;79.63
33795;BME280;51430;52.242;21.118;2023-02-03T07:57:01;100463.06;;;2.67;79.96
33795;BME280;51430;52.242;21.118;2023-02-03T07:59:48;100458.89;;;2.80;80.34
33795;BME280;51430;52.242;21.118;2023-02-03T08:02:35;100454.27;;;3.04;79.48
33795;BME280;51430;52.242;21.118;2023-02-03T08:05:22;100452.91;;;3.26;78.81
33795;BME280;51430;52.242;21.118;2023-02-03T08:08:08;100449.77;;;3.39;77.26
33795;BME280;51430;52.242;21.118;2023-02-03T08:10:55;100445.65;;;3.46;76.67
33795;BME280;51430;52.242;21.118;2023-02-03T08:13:42;100435.81;;;3.38;77.03
33795;BME280;51430;52.242;21.118;2023-02-03T08:16:28;100429.50;;;3.82;76.00
33795;BME280;51430;52.242;21.118;2023-02-03T08:19:15;100423.54;;;4.13;74.88
33795;BME280;51430;52.242;21.118;2023-02-03T08:22:02;100424.00;;;3.70;74.30
33795;BME280;51430;52.242;21.118;2023-02-03T08:24:55;100423.69;;;3.47;74.63
33795;BME280;51430;52.242;21.118;2023-02-03T08:27:41;100428.45;;;3.03;75.31
33795;BME280;51430;52.242;21.118;2023-02-03T08:30:28;100424.29;;;2.92;75.96
33795;BME280;51430;52.242;21.118;2023-02-03T08:33:16;100419.54;;;2.71;76.12
33795;BME280;51430;52.242;21.118;2023-02-03T08:36:03;100415.01;;;2.76;76.25
33795;BME280;51430;52.242;21.118;2023-02-03T08:38:51;100408.54;;;2.79;75.99
33795;BME280;51430;52.242;21.118;2023-02-03T08:41:37;100403.02;;;2.94;76.25
33795;BME280;51430;52.242;21.118;2023-02-03T08:44:24;100398.80;;;3.08;75.68
33795;BME280;51430;52.242;21.118;2023-02-03T08:47:11;100393.67;;;2.99;75.13
33795;BME280;51430;52.242;21.118;2023-02-03T08:49:58;100388.83;;;3.04;75.54
33795;BME280;51430;52.242;21.118;2023-02-03T08:52:44;100376.00;;;3.32;74.47
33795;BME280;51430;52.242;21.118;2023-02-03T08:55:31;100376.95;;;3.34;74.18
33795;BME280;51430;52.242;21.118;2023-02-03T08:58:18;100369.80;;;2.98;73.92
33795;BME280;51430;52.242;21.118;2023-02-03T09:01:07;100371.59;;;2.89;74.59
33795;BME280;51430;52.242;21.118;2023-02-03T09:03:53;100362.52;;;2.95;74.29
33795;BME280;51430;52.242;21.118;2023-02-03T09:06:40;100360.45;;;2.91;74.07
33795;BME280;51430;52.242;21.118;2023-02-03T09:09:27;100353.89;;;2.84;74.06
33795;BME280;51430;52.242;21.118;2023-02-03T09:12:14;100346.08;;;2.86;74.05
33795;BME280;51430;52.242;21.118;2023-02-03T09:15:01;100333.08;;;3.50;73.07
33795;BME280;51430;52.242;21.118;2023-02-03T09:17:48;100328.42;;;3.93;71.67
33795;BME280;51430;52.242;21.118;2023-02-03T09:20:34;100325.70;;;3.78;71.18
33795;BME280;51430;52.242;21.118;2023-02-03T09:23:21;100323.32;;;3.67;71.53
33795;BME280;51430;52.242;21.118;2023-02-03T09:26:10;100317.61;;;3.68;72.19
33795;BME280;51430;52.242;21.118;2023-02-03T09:28:57;100316.25;;;3.85;71.82
33795;BME280;51430;52.242;21.118;2023-02-03T09:31:44;100309.31;;;3.99;69.50
33795;BME280;51430;52.242;21.118;2023-02-03T09:34:33;100308.92;;;3.93;69.22
33795;BME280;51430;52.242;21.118;2023-02-03T09:37:21;100300.04;;;3.92;69.44
33795;BME280;51430;52.242;21.118;2023-02-03T09:40:16;100292.77;;;3.96;69.39
33795;BME280;51430;52.242;21.118;2023-02-03T09:43:11;100286.48;;;3.70;69.97
33795;BME280;51430;52.242;21.118;2023-02-03T09:46:12;100284.10;;;3.76;69.33
33795;BME280;51430;52.242;21.118;2023-02-03T09:49:06;100277.63;;;3.78;68.00
33795;BME280;51430;52.242;21.118;2023-02-03T09:52:22;100273.40;;;3.73;67.88
33795;BME280;51430;52.242;21.118;2023-02-03T09:55:29;100262.63;;;3.61;68.48
33795;BME280;51430;52.242;21.118;2023-02-03T09:58:19;100247.99;;;3.77;68.88
33795;BME280;51430;52.242;21.118;2023-02-03T10:01:10;100236.31;;;4.01;68.29
33795;BME280;51430;52.242;21.118;2023-02-03T10:06:51;100230.27;;;5.32;63.61
33795;BME280;51430;52.242;21.118;2023-02-03T10:09:59;100222.39;;;5.12;62.66
33795;BME280;51430;52.242;21.118;2023-02-03T10:13:28;100211.52;;;4.49;64.39
33795;BME280;51430;52.242;21.118;2023-02-03T10:16:26;100201.78;;;3.91;65.46
33795;BME280;51430;52.242;21.118;2023-02-03T10:19:19;100193.11;;;4.09;65.06
33795;BME280;51430;52.242;21.118;2023-02-03T10:22:28;100188.95;;;4.16;64.46
33795;BME280;51430;52.242;21.118;2023-02-03T10:25:24;100181.62;;;4.40;63.80
33795;BME280;51430;52.242;21.118;2023-02-03T10:28:19;100176.16;;;4.33;63.66
33795;BME280;51430;52.242;21.118;2023-02-03T10:31:17;100168.44;;;3.89;64.96
33795;BME280;51430;52.242;21.118;2023-02-03T10:34:15;100165.51;;;3.49;66.32
33795;BME280;51430;52.242;21.118;2023-02-03T10:37:15;100158.56;;;3.63;66.30
33795;BME280;51430;52.242;21.118;2023-02-03T10:40:04;100148.76;;;3.43;66.28
33795;BME280;51430;52.242;21.118;2023-02-03T10:42:51;100141.17;;;3.26;66.20
33795;BME280;51430;52.242;21.118;2023-02-03T10:45:57;100138.42;;;3.08;66.29
33795;BME280;51430;52.242;21.118;2023-02-03T10:48:44;100123.67;;;3.24;65.95
33795;BME280;51430;52.242;21.118;2023-02-03T10:51:43;100110.30;;;3.63;64.80
33795;BME280;51430;52.242;21.118;2023-02-03T10:54:34;100104.58;;;3.90;63.84
33795;BME280;51430;52.242;21.118;2023-02-03T10:57:21;100094.67;;;3.73;64.42
33795;BME280;51430;52.242;21.118;2023-02-03T11:00:22;100084.13;;;3.95;64.07
33795;BME280;51430;52.242;21.118;2023-02-03T11:06:05;100058.23;;;4.58;62.73
33795;BME280;51430;52.242;21.118;2023-02-03T11:08:52;100045.83;;;4.34;62.62
33795;BME280;51430;52.242;21.118;2023-02-03T11:11:40;100036.75;;;4.24;62.97
33795;BME280;51430;52.242;21.118;2023-02-03T11:14:35;100025.66;;;3.99;63.05
33795;BME280;51430;52.242;21.118;2023-02-03T11:17:28;100013.38;;;3.87;63.20
33795;BME280;51430;52.242;21.118;2023-02-03T11:20:16;100001.84;;;3.52;63.97
33795;BME280;51430;52.242;21.118;2023-02-03T11:23:03;99994.27;;;3.35;64.79
33795;BME280;51430;52.242;21.118;2023-02-03T11:25:50;99996.70;;;3.18;64.93
33795;BME280;51430;52.242;21.118;2023-02-03T11:28:42;99978.66;;;2.91;65.88
33795;BME280;51430;52.242;21.118;2023-02-03T11:31:33;99970.04;;;2.88;66.51
33795;BME280;51430;52.242;21.118;2023-02-03T11:34:28;99960.91;;;2.88;67.04
33795;BME280;51430;52.242;21.118;2023-02-03T11:37:38;99948.70;;;3.05;67.32
33795;BME280;51430;52.242;21.118;2023-02-03T11:40:31;99938.86;;;3.02;66.87
33795;BME280;51430;52.242;21.118;2023-02-03T11:43:21;99923.70;;;2.85;67.19
33795;BME280;51430;52.242;21.118;2023-02-03T11:46:08;99911.08;;;2.73;67.68
33795;BME280;51430;52.242;21.118;2023-02-03T11:49:04;99905.09;;;2.89;67.66
33795;BME280;51430;52.242;21.118;2023-02-03T11:55:38;99888.44;;;2.72;67.17
33795;BME280;51430;52.242;21.118;2023-02-03T12:01:53;99872.17;;;2.57;68.67
33795;BME280;51430;52.242;21.118;2023-02-03T12:11:08;99848.92;;;2.47;68.09
33795;BME280;51430;52.242;21.118;2023-02-03T12:17:05;99842.39;;;2.57;68.50
33795;BME280;51430;52.242;21.118;2023-02-03T12:23:02;99833.03;;;2.52;68.79
33795;BME280;51430;52.242;21.118;2023-02-03T12:29:18;99813.61;;;2.55;68.39
33795;BME280;51430;52.242;21.118;2023-02-03T12:32:28;99803.03;;;2.47;68.70
33795;BME280;51430;52.242;21.118;2023-02-03T12:35:22;99805.20;;;2.61;68.92
33795;BME280;51430;52.242;21.118;2023-02-03T12:38:27;99793.02;;;2.54;69.25
33795;BME280;51430;52.242;21.118;2023-02-03T12:41:20;99792.52;;;2.57;69.67
33795;BME280;51430;52.242;21.118;2023-02-03T12:44:17;99783.14;;;2.49;69.58
33795;BME280;51430;52.242;21.118;2023-02-03T12:47:31;99775.61;;;2.58;69.52
33795;BME280;51430;52.242;21.118;2023-02-03T12:56:06;99747.52;;;2.43;70.03
33795;BME280;51430;52.242;21.118;2023-02-03T12:59:02;99744.95;;;2.46;69.39
33795;BME280;51430;52.242;21.118;2023-02-03T13:01:55;99724.81;;;2.43;69.73
33795;BME280;51430;52.242;21.118;2023-02-03T13:04:50;99711.59;;;2.36;69.93
33795;BME280;51430;52.242;21.118;2023-02-03T13:07:47;99698.03;;;2.36;70.71
33795;BME280;51430;52.242;21.118;2023-02-03T13:10:45;99687.40;;;2.38;70.37
33795;BME280;51430;52.242;21.118;2023-02-03T13:13:39;99676.42;;;2.41;70.26
33795;BME280;51430;52.242;21.118;2023-02-03T13:16:32;99675.14;;;2.36;69.66
33795;BME280;51430;52.242;21.118;2023-02-03T13:19:26;99656.73;;;2.39;69.95
33795;BME280;51430;52.242;21.118;2023-02-03T13:22:15;99652.36;;;2.37;69.61
33795;BME280;51430;52.242;21.118;2023-02-03T13:25:07;99638.79;;;2.37;69.77
33795;BME280;51430;52.242;21.118;2023-02-03T13:31:38;99619.29;;;2.32;70.60
33795;BME280;51430;52.242;21.118;2023-02-03T13:41:00;99592.08;;;1.66;76.08
33795;BME280;51430;52.242;21.118;2023-02-03T13:43:50;99581.23;;;1.56;77.59
33795;BME280;51430;52.242;21.118;2023-02-03T13:46:38;99574.02;;;1.53;78.43
33795;BME280;51430;52.242;21.118;2023-02-03T13:49:35;99559.75;;;1.36;79.95
33795;BME280;51430;52.242;21.118;2023-02-03T13:52:47;99554.41;;;1.34;80.95
33795;BME280;51430;52.242;21.118;2023-02-03T13:55:51;99551.84;;;1.20;82.42
33795;BME280;51430;52.242;21.118;2023-02-03T13:58:38;99548.13;;;1.09;83.29
33795;BME280;51430;52.242;21.118;2023-02-03T14:01:43;99540.85;;;1.04;84.12
33795;BME280;51430;52.242;21.118;2023-02-03T14:04:50;99534.54;;;1.03;84.47
33795;BME280;51430;52.242;21.118;2023-02-03T14:07:40;99528.73;;;0.92;85.85
33795;BME280;51430;52.242;21.118;2023-02-03T14:10:26;99521.41;;;0.94;86.45
33795;BME280;51430;52.242;21.118;2023-02-03T14:13:21;99512.45;;;0.85;87.26
33795;BME280;51430;52.242;21.118;2023-02-03T14:16:21;99509.54;;;0.78;87.96
33795;BME280;51430;52.242;21.118;2023-02-03T14:22:15;99499.82;;;0.70;90.17
33795;BME280;51430;52.242;21.118;2023-02-03T14:25:04;99493.28;;;0.54;91.77
33795;BME280;51430;52.242;21.118;2023-02-03T14:28:06;99491.60;;;0.46;93.56
33795;BME280;51430;52.242;21.118;2023-02-03T14:31:03;99480.61;;;0.36;94.83
33795;BME280;51430;52.242;21.118;2023-02-03T14:34:02;99475.02;;;0.42;95.53
33795;BME280;51430;52.242;21.118;2023-02-03T14:36:52;99473.34;;;0.38;96.31
33795;BME280;51430;52.242;21.118;2023-02-03T14:58:45;99435.94;;;0.06;100.00
33795;BME280;51430;52.242;21.118;2023-02-03T15:04:23;99430.15;;;0.13;100.00
33795;BME280;51430;52.242;21.118;2023-02-03T15:07:36;99426.04;;;0.20;100.00
33795;BME280;51430;52.242;21.118;2023-02-03T15:10:44;99419.87;;;0.10;100.00
33795;BME280;51430;52.242;21.118;2023-02-03T15:13:31;99415.02;;;0.07;100.00
33795;BME280;51430;52.242;21.118;2023-02-03T15:16:19;99409.92;;;0.06;100.00
33795;BME280;51430;52.242;21.118;2023-02-03T15:19:17;99403.79;;;0.16;100.00
33795;BME280;51430;52.242;21.118;2023-02-03T15:22:22;99399.48;;;0.06;100.00
33795;BME280;51430;52.242;21.118;2023-02-03T15:25:16;99394.91;;;0.04;100.00
33795;BME280;51430;52.242;21.118;2023-02-03T15:28:19;99393.86;;;0.05;100.00
33795;BME280;51430;52.242;21.118;2023-02-03T15:41:35;99378.04;;;0.06;100.00
33795;BME280;51430;52.242;21.118;2023-02-03T15:44:38;99370.48;;;0.21;100.00
33795;BME280;51430;52.242;21.118;2023-02-03T15:54:36;99352.35;;;0.03;100.00
33795;BME280;51430;52.242;21.118;2023-02-03T15:57:33;99354.30;;;0.02;100.00
33795;BME280;51430;52.242;21.118;2023-02-03T16:00:28;99348.52;;;0.11;100.00
33795;BME280;51430;52.242;21.118;2023-02-03T16:03:20;99340.82;;;0.11;100.00
33795;BME280;51430;52.242;21.118;2023-02-03T16:07:45;99331.96;;;0.23;100.00
33795;BME280;51430;52.242;21.118;2023-02-03T16:10:47;99326.95;;;0.17;100.00
33795;BME280;51430;52.242;21.118;2023-02-03T16:13:34;99324.52;;;0.08;100.00
33795;BME280;51430;52.242;21.118;2023-02-03T16:16:37;99322.76;;;0.16;100.00
33795;BME280;51430;52.242;21.118;2023-02-03T16:19:26;99321.63;;;0.18;100.00
33795;BME280;51430;52.242;21.118;2023-02-03T16:22:32;99310.70;;;0.30;100.00
33795;BME280;51430;52.242;21.118;2023-02-03T16:25:23;99305.16;;;0.21;100.00
33795;BME280;51430;52.242;21.118;2023-02-03T16:31:19;99298.48;;;0.18;100.00
33795;BME280;51430;52.242;21.118;2023-02-03T16:34:25;99293.63;;;0.19;100.00
33795;BME280;51430;52.242;21.118;2023-02-03T16:37:42;99290.40;;;0.25;100.00
33795;BME280;51430;52.242;21.118;2023-02-03T16:40:48;99288.84;;;0.19;100.00
33795;BME280;51430;52.242;21.118;2023-02-03T16:43:53;99283.02;;;0.29;100.00
33795;BME280;51430;52.242;21.118;2023-02-03T16:46:58;99273.64;;;0.25;100.00
33795;BME280;51430;52.242;21.118;2023-02-03T16:50:03;99269.02;;;0.24;100.00